Terminal Aerodrome Forecast
Issued by NWS Louisville, KY

Home | Current Version | Previous Version | Text Only | Print | Product List | Glossary On
Versions: 1 2 3 4 5 6 7 8 9 10 11 12 13 14 15 16
000
FTUS43 KLMK 232300
TAFLEX
TAF
KLEX 232320Z 2400/2424 VRB03KT P6SM BKN200
     FM240900 VRB03KT P6SM SCT150
     FM241300 17004KT P6SM BKN110=

USA.gov is the U.S. government's official web portal to all federal, state and local government web resources and services.